sensor_id;sensor_type;location;lat;lon;timestamp;pressure;altitude;pressure_sealevel;temperature;humidity
9521;BME280;4798;41.574;23.734;2023-04-07T00:00:33;94930.06;;;4.50;58.97
9521;BME280;4798;41.574;23.734;2023-04-07T00:03:02;94992.50;;;5.03;59.06
9521;BME280;4798;41.574;23.734;2023-04-07T00:05:33;94951.28;;;4.87;58.02
9521;BME280;4798;41.574;23.734;2023-04-07T00:08:01;94930.94;;;4.39;59.11
9521;BME280;4798;41.574;23.734;2023-04-07T00:10:30;94994.41;;;4.91;58.79
9521;BME280;4798;41.574;23.734;2023-04-07T00:12:58;94992.50;;;5.03;58.44
9521;BME280;4798;41.574;23.734;2023-04-07T00:15:26;94996.94;;;5.02;58.19
9521;BME280;4798;41.574;23.734;2023-04-07T00:17:55;94996.63;;;4.99;58.94
9521;BME280;4798;41.574;23.734;2023-04-07T00:20:24;94964.00;;;4.40;60.53
9521;BME280;4798;41.574;23.734;2023-04-07T00:22:53;95003.91;;;4.42;61.00
9521;BME280;4798;41.574;23.734;2023-04-07T00:25:21;95007.22;;;4.21;61.94
9521;BME280;4798;41.574;23.734;2023-04-07T00:27:49;95005.97;;;4.23;61.98
9521;BME280;4798;41.574;23.734;2023-04-07T00:30:18;95009.22;;;4.30;62.01
9521;BME280;4798;41.574;23.734;2023-04-07T00:32:46;95011.53;;;4.27;62.07
9521;BME280;4798;41.574;23.734;2023-04-07T00:35:15;95009.22;;;4.64;61.43
9521;BME280;4798;41.574;23.734;2023-04-07T00:37:44;95011.41;;;4.50;61.03
9521;BME280;4798;41.574;23.734;2023-04-07T00:40:13;95005.66;;;4.36;60.91
9521;BME280;4798;41.574;23.734;2023-04-07T00:42:41;95009.41;;;4.57;61.51
9521;BME280;4798;41.574;23.734;2023-04-07T00:45:10;95020.50;;;4.31;61.65
9521;BME280;4798;41.574;23.734;2023-04-07T00:47:38;95020.72;;;4.13;61.79
9521;BME280;4798;41.574;23.734;2023-04-07T00:50:08;95024.66;;;4.43;61.21
9521;BME280;4798;41.574;23.734;2023-04-07T00:52:36;95017.81;;;4.59;60.87
9521;BME280;4798;41.574;23.734;2023-04-07T00:55:07;95024.09;;;4.25;61.42
9521;BME280;4798;41.574;23.734;2023-04-07T00:57:35;95032.06;;;4.30;61.73
9521;BME280;4798;41.574;23.734;2023-04-07T01:00:05;95030.03;;;4.20;62.30
9521;BME280;4798;41.574;23.734;2023-04-07T01:02:36;95026.09;;;3.90;63.00
9521;BME280;4798;41.574;23.734;2023-04-07T01:05:12;95036.19;;;3.98;62.71
9521;BME280;4798;41.574;23.734;2023-04-07T01:07:50;95034.84;;;3.95;63.44
9521;BME280;4798;41.574;23.734;2023-04-07T01:10:26;95012.69;;;3.74;63.61
9521;BME280;4798;41.574;23.734;2023-04-07T01:13:04;95025.97;;;3.84;63.69
9521;BME280;4798;41.574;23.734;2023-04-07T01:15:34;95039.34;;;3.83;63.63
9521;BME280;4798;41.574;23.734;2023-04-07T01:18:09;95037.06;;;3.87;64.14
9521;BME280;4798;41.574;23.734;2023-04-07T01:20:42;95041.50;;;3.74;63.61
9521;BME280;4798;41.574;23.734;2023-04-07T01:26:19;95041.38;;;4.54;62.23
9521;BME280;4798;41.574;23.734;2023-04-07T01:29:27;95033.53;;;4.26;62.26
9521;BME280;4798;41.574;23.734;2023-04-07T01:31:59;95043.88;;;4.16;62.01
9521;BME280;4798;41.574;23.734;2023-04-07T01:34:29;95040.59;;;3.80;63.35
9521;BME280;4798;41.574;23.734;2023-04-07T01:37:00;95033.16;;;3.49;63.84
9521;BME280;4798;41.574;23.734;2023-04-07T01:39:29;95042.09;;;3.76;63.73
9521;BME280;4798;41.574;23.734;2023-04-07T01:41:59;95030.38;;;3.96;63.37
9521;BME280;4798;41.574;23.734;2023-04-07T01:44:31;95014.44;;;3.97;63.34
9521;BME280;4798;41.574;23.734;2023-04-07T01:47:00;95040.06;;;3.95;63.43
9521;BME280;4798;41.574;23.734;2023-04-07T01:49:29;95031.63;;;4.21;63.18
9521;BME280;4798;41.574;23.734;2023-04-07T01:51:58;95036.97;;;4.43;62.53
9521;BME280;4798;41.574;23.734;2023-04-07T01:54:27;95041.78;;;4.18;62.90
9521;BME280;4798;41.574;23.734;2023-04-07T01:56:56;95041.38;;;4.37;62.60
9521;BME280;4798;41.574;23.734;2023-04-07T01:59:24;95040.03;;;4.07;62.30
9521;BME280;4798;41.574;23.734;2023-04-07T02:01:54;95035.00;;;4.05;62.15
9521;BME280;4798;41.574;23.734;2023-04-07T02:04:27;94991.25;;;3.49;62.52
9521;BME280;4798;41.574;23.734;2023-04-07T02:07:00;95034.34;;;4.10;62.43
9521;BME280;4798;41.574;23.734;2023-04-07T02:09:31;95026.84;;;4.02;62.69
9521;BME280;4798;41.574;23.734;2023-04-07T02:12:02;95031.00;;;4.14;62.66
9521;BME280;4798;41.574;23.734;2023-04-07T02:14:32;95039.88;;;4.13;61.50
9521;BME280;4798;41.574;23.734;2023-04-07T02:17:03;95046.13;;;3.96;61.28
9521;BME280;4798;41.574;23.734;2023-04-07T02:19:32;95040.88;;;3.67;61.94
9521;BME280;4798;41.574;23.734;2023-04-07T02:22:02;95043.94;;;4.21;61.54
9521;BME280;4798;41.574;23.734;2023-04-07T02:24:30;95039.88;;;4.13;61.52
9521;BME280;4798;41.574;23.734;2023-04-07T02:26:59;95044.47;;;3.78;61.74
9521;BME280;4798;41.574;23.734;2023-04-07T02:29:28;95046.72;;;3.86;61.92
9521;BME280;4798;41.574;23.734;2023-04-07T02:32:15;95036.72;;;3.83;62.03
9521;BME280;4798;41.574;23.734;2023-04-07T02:34:43;95044.16;;;4.03;61.41
9521;BME280;4798;41.574;23.734;2023-04-07T02:37:12;95048.09;;;3.49;62.36
9521;BME280;4798;41.574;23.734;2023-04-07T02:39:40;95048.81;;;3.72;62.95
9521;BME280;4798;41.574;23.734;2023-04-07T02:42:08;95050.38;;;3.45;63.16
9521;BME280;4798;41.574;23.734;2023-04-07T02:44:36;95056.09;;;3.31;63.96
9521;BME280;4798;41.574;23.734;2023-04-07T02:47:05;95041.69;;;3.05;64.11
9521;BME280;4798;41.574;23.734;2023-04-07T02:49:34;95055.22;;;2.90;64.67
9521;BME280;4798;41.574;23.734;2023-04-07T02:52:03;95055.78;;;2.92;64.56
9521;BME280;4798;41.574;23.734;2023-04-07T02:54:31;94995.94;;;2.73;64.55
9521;BME280;4798;41.574;23.734;2023-04-07T02:57:00;95045.22;;;2.87;64.61
9521;BME280;4798;41.574;23.734;2023-04-07T02:59:28;95047.38;;;3.02;64.84
9521;BME280;4798;41.574;23.734;2023-04-07T03:01:56;95059.63;;;3.25;64.25
9521;BME280;4798;41.574;23.734;2023-04-07T03:04:25;95056.38;;;3.06;64.42
9521;BME280;4798;41.574;23.734;2023-04-07T03:06:55;95051.69;;;2.96;64.00
9521;BME280;4798;41.574;23.734;2023-04-07T03:09:24;95062.84;;;2.92;64.56
9521;BME280;4798;41.574;23.734;2023-04-07T03:11:52;95069.91;;;3.26;64.00
9521;BME280;4798;41.574;23.734;2023-04-07T03:14:20;95061.53;;;3.52;63.30
9521;BME280;4798;41.574;23.734;2023-04-07T03:16:49;95074.06;;;3.50;62.88
9521;BME280;4798;41.574;23.734;2023-04-07T03:19:17;95068.84;;;3.27;63.14
9521;BME280;4798;41.574;23.734;2023-04-07T03:21:45;95069.19;;;3.42;62.74
9521;BME280;4798;41.574;23.734;2023-04-07T03:24:15;95071.59;;;3.20;63.60
9521;BME280;4798;41.574;23.734;2023-04-07T03:26:44;95069.09;;;3.14;63.68
9521;BME280;4798;41.574;23.734;2023-04-07T03:29:12;95079.81;;;3.12;64.08
9521;BME280;4798;41.574;23.734;2023-04-07T03:31:41;95067.94;;;3.33;63.63
9521;BME280;4798;41.574;23.734;2023-04-07T03:34:09;95076.94;;;3.77;64.24
9521;BME280;4798;41.574;23.734;2023-04-07T03:36:37;95071.66;;;3.60;62.37
9521;BME280;4798;41.574;23.734;2023-04-07T03:39:06;95069.06;;;3.89;62.24
9521;BME280;4798;41.574;23.734;2023-04-07T03:41:35;95072.44;;;4.01;61.77
9521;BME280;4798;41.574;23.734;2023-04-07T03:44:04;95081.78;;;3.68;61.88
9521;BME280;4798;41.574;23.734;2023-04-07T03:46:32;95052.38;;;3.15;63.20
9521;BME280;4798;41.574;23.734;2023-04-07T03:49:01;95086.34;;;3.61;62.63
9521;BME280;4798;41.574;23.734;2023-04-07T03:51:29;95079.94;;;4.09;61.53
9521;BME280;4798;41.574;23.734;2023-04-07T03:53:58;95077.19;;;3.75;61.71
9521;BME280;4798;41.574;23.734;2023-04-07T03:56:27;95084.78;;;3.89;61.57
9521;BME280;4798;41.574;23.734;2023-04-07T03:58:56;95089.38;;;3.81;61.40
9521;BME280;4798;41.574;23.734;2023-04-07T04:01:25;95082.88;;;3.84;60.77
9521;BME280;4798;41.574;23.734;2023-04-07T04:03:53;95092.78;;;3.82;61.29
9521;BME280;4798;41.574;23.734;2023-04-07T04:06:22;95102.84;;;3.73;61.42
9521;BME280;4798;41.574;23.734;2023-04-07T04:08:52;95097.09;;;3.25;62.50
9521;BME280;4798;41.574;23.734;2023-04-07T04:11:20;95101.53;;;3.36;62.55
9521;BME280;4798;41.574;23.734;2023-04-07T04:13:49;95097.88;;;3.37;62.58
9521;BME280;4798;41.574;23.734;2023-04-07T04:16:19;95105.53;;;3.15;63.68
9521;BME280;4798;41.574;23.734;2023-04-07T04:18:48;95113.59;;;3.14;63.25
9521;BME280;4798;41.574;23.734;2023-04-07T04:21:16;95110.31;;;2.95;63.95
9521;BME280;4798;41.574;23.734;2023-04-07T04:23:45;95066.03;;;2.71;63.85
9521;BME280;4798;41.574;23.734;2023-04-07T04:26:13;95112.34;;;3.05;64.69
9521;BME280;4798;41.574;23.734;2023-04-07T04:28:41;95107.22;;;3.33;64.14
9521;BME280;4798;41.574;23.734;2023-04-07T04:31:10;95042.00;;;3.20;62.91
9521;BME280;4798;41.574;23.734;2023-04-07T04:33:40;95109.59;;;3.58;62.87
9521;BME280;4798;41.574;23.734;2023-04-07T04:36:08;95124.50;;;3.57;63.01
9521;BME280;4798;41.574;23.734;2023-04-07T04:38:36;95116.78;;;3.39;62.98
9521;BME280;4798;41.574;23.734;2023-04-07T04:41:05;95127.38;;;3.56;62.74
9521;BME280;4798;41.574;23.734;2023-04-07T04:43:33;95127.25;;;3.62;62.90
9521;BME280;4798;41.574;23.734;2023-04-07T04:46:01;95125.59;;;3.84;62.45
9521;BME280;4798;41.574;23.734;2023-04-07T04:48:30;95135.91;;;4.03;61.42
9521;BME280;4798;41.574;23.734;2023-04-07T04:50:59;95125.41;;;4.42;60.76
9521;BME280;4798;41.574;23.734;2023-04-07T04:53:27;95126.19;;;5.04;60.71
9521;BME280;4798;41.574;23.734;2023-04-07T04:55:56;95135.00;;;4.65;61.19
9521;BME280;4798;41.574;23.734;2023-04-07T04:58:24;95123.47;;;4.38;62.60
9521;BME280;4798;41.574;23.734;2023-04-07T05:00:53;95131.31;;;4.49;62.89
9521;BME280;4798;41.574;23.734;2023-04-07T05:03:24;95139.50;;;4.25;65.54
9521;BME280;4798;41.574;23.734;2023-04-07T05:05:53;95139.22;;;4.38;65.78
9521;BME280;4798;41.574;23.734;2023-04-07T05:08:23;95132.47;;;4.14;65.56
9521;BME280;4798;41.574;23.734;2023-04-07T05:10:51;95140.81;;;4.39;65.56
9521;BME280;4798;41.574;23.734;2023-04-07T05:13:19;95140.81;;;4.39;65.98
9521;BME280;4798;41.574;23.734;2023-04-07T05:15:48;95147.97;;;4.43;66.06
9521;BME280;4798;41.574;23.734;2023-04-07T05:18:16;95139.03;;;4.56;65.56
9521;BME280;4798;41.574;23.734;2023-04-07T05:20:44;95146.22;;;4.77;65.42
9521;BME280;4798;41.574;23.734;2023-04-07T05:23:15;95151.19;;;4.90;64.60
9521;BME280;4798;41.574;23.734;2023-04-07T05:25:45;95154.22;;;5.16;63.27
9521;BME280;4798;41.574;23.734;2023-04-07T05:28:13;95163.56;;;5.61;62.37
9521;BME280;4798;41.574;23.734;2023-04-07T05:30:42;95161.75;;;5.84;61.03
9521;BME280;4798;41.574;23.734;2023-04-07T05:33:10;95158.25;;;5.78;60.54
9521;BME280;4798;41.574;23.734;2023-04-07T05:35:39;95162.34;;;5.86;60.07
9521;BME280;4798;41.574;23.734;2023-04-07T05:38:07;95156.72;;;5.99;59.94
9521;BME280;4798;41.574;23.734;2023-04-07T05:40:36;95152.69;;;5.91;59.89
9521;BME280;4798;41.574;23.734;2023-04-07T05:43:06;95162.91;;;6.31;59.01
9521;BME280;4798;41.574;23.734;2023-04-07T05:45:34;95156.28;;;6.77;58.24
9521;BME280;4798;41.574;23.734;2023-04-07T05:48:02;95142.88;;;6.52;58.79
9521;BME280;4798;41.574;23.734;2023-04-07T05:50:31;95156.63;;;6.59;57.95
9521;BME280;4798;41.574;23.734;2023-04-07T05:52:59;95119.06;;;6.42;58.63
9521;BME280;4798;41.574;23.734;2023-04-07T05:55:28;95157.19;;;6.87;58.71
9521;BME280;4798;41.574;23.734;2023-04-07T05:57:57;95156.25;;;7.35;58.29
9521;BME280;4798;41.574;23.734;2023-04-07T06:00:26;95157.94;;;7.15;58.82
9521;BME280;4798;41.574;23.734;2023-04-07T06:02:55;95166.13;;;6.60;58.27
9521;BME280;4798;41.574;23.734;2023-04-07T06:05:23;95159.94;;;6.49;60.37
9521;BME280;4798;41.574;23.734;2023-04-07T06:07:52;95166.31;;;6.80;58.72
9521;BME280;4798;41.574;23.734;2023-04-07T06:10:20;95161.03;;;7.07;58.77
9521;BME280;4798;41.574;23.734;2023-04-07T06:12:49;95154.88;;;7.28;58.36
9521;BME280;4798;41.574;23.734;2023-04-07T06:15:17;95094.19;;;7.18;57.98
9521;BME280;4798;41.574;23.734;2023-04-07T06:17:47;95133.03;;;7.32;57.53
9521;BME280;4798;41.574;23.734;2023-04-07T06:20:15;95166.28;;;7.75;56.05
9521;BME280;4798;41.574;23.734;2023-04-07T06:22:43;95152.00;;;8.23;55.40
9521;BME280;4798;41.574;23.734;2023-04-07T06:25:12;95150.88;;;8.04;55.49
9521;BME280;4798;41.574;23.734;2023-04-07T06:27:41;95145.16;;;7.75;55.88
9521;BME280;4798;41.574;23.734;2023-04-07T06:30:10;95170.22;;;8.19;58.76
9521;BME280;4798;41.574;23.734;2023-04-07T06:32:39;95171.75;;;8.77;59.08
9521;BME280;4798;41.574;23.734;2023-04-07T06:35:09;95170.19;;;8.81;57.85
9521;BME280;4798;41.574;23.734;2023-04-07T06:37:37;95177.63;;;9.50;55.00
9521;BME280;4798;41.574;23.734;2023-04-07T06:40:07;95172.88;;;9.32;54.07
9521;BME280;4798;41.574;23.734;2023-04-07T06:42:35;95174.41;;;9.88;53.03
9521;BME280;4798;41.574;23.734;2023-04-07T06:45:04;95167.59;;;9.22;53.33
9521;BME280;4798;41.574;23.734;2023-04-07T06:47:33;95175.25;;;9.58;52.21
9521;BME280;4798;41.574;23.734;2023-04-07T06:50:01;95176.31;;;9.68;52.03
9521;BME280;4798;41.574;23.734;2023-04-07T06:52:31;95168.56;;;10.16;50.92
9521;BME280;4798;41.574;23.734;2023-04-07T06:54:59;95166.00;;;10.55;49.84
9521;BME280;4798;41.574;23.734;2023-04-07T06:57:27;95140.34;;;11.28;48.94
9521;BME280;4798;41.574;23.734;2023-04-07T06:59:56;95093.59;;;11.04;45.84
9521;BME280;4798;41.574;23.734;2023-04-07T07:02:24;95164.47;;;11.66;45.00
9521;BME280;4798;41.574;23.734;2023-04-07T07:04:53;95156.88;;;11.54;44.20
9521;BME280;4798;41.574;23.734;2023-04-07T07:07:21;95162.69;;;11.90;45.69
9521;BME280;4798;41.574;23.734;2023-04-07T07:09:53;95152.50;;;11.97;45.10
9521;BME280;4798;41.574;23.734;2023-04-07T07:12:21;95157.91;;;12.16;45.04
9521;BME280;4798;41.574;23.734;2023-04-07T07:14:49;95172.69;;;11.69;45.14
9521;BME280;4798;41.574;23.734;2023-04-07T07:17:17;95159.31;;;12.08;45.56
9521;BME280;4798;41.574;23.734;2023-04-07T07:19:46;95162.19;;;11.88;43.63
9521;BME280;4798;41.574;23.734;2023-04-07T07:22:14;95163.97;;;12.63;44.19
9521;BME280;4798;41.574;23.734;2023-04-07T07:24:42;95167.19;;;13.21;41.04
9521;BME280;4798;41.574;23.734;2023-04-07T07:27:12;95140.34;;;12.81;41.13
9521;BME280;4798;41.574;23.734;2023-04-07T07:29:41;95168.13;;;12.51;39.57
9521;BME280;4798;41.574;23.734;2023-04-07T07:32:09;95170.63;;;13.03;38.88
9521;BME280;4798;41.574;23.734;2023-04-07T07:34:37;95167.97;;;14.19;37.67
9521;BME280;4798;41.574;23.734;2023-04-07T07:37:06;95163.06;;;13.15;38.74
9521;BME280;4798;41.574;23.734;2023-04-07T07:39:34;95163.19;;;13.56;38.25
9521;BME280;4798;41.574;23.734;2023-04-07T07:42:02;95161.72;;;13.50;38.60
9521;BME280;4798;41.574;23.734;2023-04-07T07:44:32;95152.59;;;13.70;37.96
9521;BME280;4798;41.574;23.734;2023-04-07T07:47:00;95155.06;;;15.16;37.10
9521;BME280;4798;41.574;23.734;2023-04-07T07:49:29;95150.75;;;14.57;37.27
9521;BME280;4798;41.574;23.734;2023-04-07T07:51:57;95146.13;;;14.03;36.83
9521;BME280;4798;41.574;23.734;2023-04-07T07:54:26;95141.31;;;15.45;36.58
9521;BME280;4798;41.574;23.734;2023-04-07T07:56:55;95117.56;;;15.21;35.57
9521;BME280;4798;41.574;23.734;2023-04-07T07:59:23;95141.69;;;14.80;34.25
9521;BME280;4798;41.574;23.734;2023-04-07T08:01:53;95142.53;;;16.14;33.94
9521;BME280;4798;41.574;23.734;2023-04-07T08:04:21;95121.19;;;14.67;32.84
9521;BME280;4798;41.574;23.734;2023-04-07T08:06:50;95151.13;;;14.50;32.86
9521;BME280;4798;41.574;23.734;2023-04-07T08:09:19;95155.56;;;14.55;33.87
9521;BME280;4798;41.574;23.734;2023-04-07T08:11:48;95140.16;;;16.12;35.34
9521;BME280;4798;41.574;23.734;2023-04-07T08:14:17;95144.03;;;14.95;32.43
9521;BME280;4798;41.574;23.734;2023-04-07T08:16:45;95139.47;;;15.45;33.31
9521;BME280;4798;41.574;23.734;2023-04-07T08:19:15;95136.03;;;16.85;32.15
9521;BME280;4798;41.574;23.734;2023-04-07T08:21:44;95140.16;;;17.59;31.99
9521;BME280;4798;41.574;23.734;2023-04-07T08:24:12;95144.69;;;17.93;31.09
9521;BME280;4798;41.574;23.734;2023-04-07T08:26:40;95130.22;;;17.00;33.62
9521;BME280;4798;41.574;23.734;2023-04-07T08:29:09;95088.66;;;16.37;33.15
9521;BME280;4798;41.574;23.734;2023-04-07T08:31:37;95138.28;;;17.60;31.82
9521;BME280;4798;41.574;23.734;2023-04-07T08:34:05;95138.56;;;17.24;32.07
9521;BME280;4798;41.574;23.734;2023-04-07T08:36:35;95113.41;;;18.06;29.79
9521;BME280;4798;41.574;23.734;2023-04-07T08:39:03;95135.53;;;19.49;29.44
9521;BME280;4798;41.574;23.734;2023-04-07T08:41:35;95119.00;;;19.71;30.43
9521;BME280;4798;41.574;23.734;2023-04-07T08:44:05;95127.44;;;19.49;30.43
9521;BME280;4798;41.574;23.734;2023-04-07T08:46:38;95114.00;;;19.28;29.01
9521;BME280;4798;41.574;23.734;2023-04-07T08:49:09;95117.53;;;18.41;30.18
9521;BME280;4798;41.574;23.734;2023-04-07T08:51:45;95119.28;;;18.95;28.54
9521;BME280;4798;41.574;23.734;2023-04-07T08:54:16;95116.91;;;18.44;28.73
9521;BME280;4798;41.574;23.734;2023-04-07T08:56:47;95110.19;;;19.09;30.25
9521;BME280;4798;41.574;23.734;2023-04-07T08:59:18;95101.34;;;19.82;27.75
9521;BME280;4798;41.574;23.734;2023-04-07T09:01:53;95089.81;;;19.82;27.07
9521;BME280;4798;41.574;23.734;2023-04-07T09:04:22;95098.72;;;20.06;27.97
9521;BME280;4798;41.574;23.734;2023-04-07T09:06:52;95107.41;;;19.91;30.06
9521;BME280;4798;41.574;23.734;2023-04-07T09:09:20;95106.72;;;18.29;30.51
9521;BME280;4798;41.574;23.734;2023-04-07T09:11:50;95114.50;;;18.05;30.20
9521;BME280;4798;41.574;23.734;2023-04-07T09:14:19;95111.03;;;18.04;29.53
9521;BME280;4798;41.574;23.734;2023-04-07T09:16:48;95113.31;;;17.76;29.11
9521;BME280;4798;41.574;23.734;2023-04-07T09:19:16;95092.00;;;19.14;30.13
9521;BME280;4798;41.574;23.734;2023-04-07T09:21:48;95091.25;;;19.79;28.18
9521;BME280;4798;41.574;23.734;2023-04-07T09:24:22;95095.78;;;19.13;28.50
9521;BME280;4798;41.574;23.734;2023-04-07T09:27:07;95090.31;;;21.17;26.55
9521;BME280;4798;41.574;23.734;2023-04-07T09:29:36;95092.97;;;20.29;29.41
9521;BME280;4798;41.574;23.734;2023-04-07T09:32:05;95097.09;;;18.86;28.30
9521;BME280;4798;41.574;23.734;2023-04-07T09:34:35;95096.44;;;18.31;28.63
9521;BME280;4798;41.574;23.734;2023-04-07T09:37:07;95067.63;;;19.40;28.61
9521;BME280;4798;41.574;23.734;2023-04-07T09:39:49;95066.03;;;20.41;27.50
9521;BME280;4798;41.574;23.734;2023-04-07T09:42:19;95070.13;;;19.57;27.94
9521;BME280;4798;41.574;23.734;2023-04-07T09:44:48;95062.22;;;20.42;28.85
9521;BME280;4798;41.574;23.734;2023-04-07T09:47:17;95067.94;;;20.52;28.48
9521;BME280;4798;41.574;23.734;2023-04-07T09:49:50;95064.97;;;19.97;28.84
9521;BME280;4798;41.574;23.734;2023-04-07T09:52:24;95070.88;;;21.51;27.91
9521;BME280;4798;41.574;23.734;2023-04-07T09:54:54;95016.25;;;21.26;27.72
9521;BME280;4798;41.574;23.734;2023-04-07T09:57:23;95061.69;;;21.95;26.67
9521;BME280;4798;41.574;23.734;2023-04-07T09:59:52;95063.34;;;22.31;27.63
9521;BME280;4798;41.574;23.734;2023-04-07T10:02:22;95068.97;;;20.36;27.88
9521;BME280;4798;41.574;23.734;2023-04-07T10:04:52;95056.75;;;21.42;28.25
9521;BME280;4798;41.574;23.734;2023-04-07T10:07:21;95039.59;;;20.95;27.43
9521;BME280;4798;41.574;23.734;2023-04-07T10:09:49;95062.16;;;21.02;27.41
9521;BME280;4798;41.574;23.734;2023-04-07T10:12:19;95054.19;;;22.51;27.32
9521;BME280;4798;41.574;23.734;2023-04-07T10:14:49;95062.78;;;22.57;26.84
9521;BME280;4798;41.574;23.734;2023-04-07T10:17:18;95056.16;;;22.70;28.41
9521;BME280;4798;41.574;23.734;2023-04-07T10:19:47;95051.84;;;23.19;26.70
9521;BME280;4798;41.574;23.734;2023-04-07T10:22:17;95051.47;;;22.51;26.16
9521;BME280;4798;41.574;23.734;2023-04-07T10:24:54;95043.09;;;22.56;28.07
9521;BME280;4798;41.574;23.734;2023-04-07T10:27:28;95042.38;;;21.81;27.67
9521;BME280;4798;41.574;23.734;2023-04-07T10:29:59;95051.16;;;21.78;27.26
9521;BME280;4798;41.574;23.734;2023-04-07T10:32:29;95043.69;;;22.81;26.39
9521;BME280;4798;41.574;23.734;2023-04-07T10:34:58;95036.75;;;23.18;26.20
9521;BME280;4798;41.574;23.734;2023-04-07T10:37:27;95034.94;;;24.29;25.37
9521;BME280;4798;41.574;23.734;2023-04-07T10:40:26;95033.31;;;24.47;25.45
9521;BME280;4798;41.574;23.734;2023-04-07T10:42:56;95026.44;;;24.53;25.58
9521;BME280;4798;41.574;23.734;2023-04-07T10:45:56;95017.03;;;23.98;27.23
9521;BME280;4798;41.574;23.734;2023-04-07T10:48:27;95032.16;;;20.40;26.87
9521;BME280;4798;41.574;23.734;2023-04-07T10:51:16;95040.88;;;20.73;27.49
9521;BME280;4798;41.574;23.734;2023-04-07T10:57:13;95024.88;;;24.26;24.48
9521;BME280;4798;41.574;23.734;2023-04-07T11:00:15;94997.03;;;23.83;27.72
9521;BME280;4798;41.574;23.734;2023-04-07T11:02:44;95016.81;;;23.65;26.85
9521;BME280;4798;41.574;23.734;2023-04-07T11:05:20;95026.28;;;22.63;26.91
9521;BME280;4798;41.574;23.734;2023-04-07T11:07:51;95030.16;;;23.35;26.27
9521;BME280;4798;41.574;23.734;2023-04-07T11:10:24;95015.53;;;24.49;26.03
9521;BME280;4798;41.574;23.734;2023-04-07T11:12:59;95009.22;;;23.51;25.50
9521;BME280;4798;41.574;23.734;2023-04-07T11:15:29;95008.78;;;24.89;26.17
9521;BME280;4798;41.574;23.734;2023-04-07T11:18:10;95010.72;;;24.88;26.55
9521;BME280;4798;41.574;23.734;2023-04-07T11:20:44;95004.53;;;24.39;22.96
9521;BME280;4798;41.574;23.734;2023-04-07T11:23:13;94982.84;;;24.61;23.76
9521;BME280;4798;41.574;23.734;2023-04-07T11:25:44;95003.81;;;22.94;23.80
9521;BME280;4798;41.574;23.734;2023-04-07T11:28:13;94970.00;;;20.97;24.42
9521;BME280;4798;41.574;23.734;2023-04-07T11:30:48;94996.34;;;23.45;21.59
9521;BME280;4798;41.574;23.734;2023-04-07T11:33:19;94995.16;;;23.42;25.69
9521;BME280;4798;41.574;23.734;2023-04-07T11:35:52;95000.16;;;23.05;24.32
9521;BME280;4798;41.574;23.734;2023-04-07T11:38:24;94996.41;;;23.10;22.48
9521;BME280;4798;41.574;23.734;2023-04-07T11:40:54;94944.44;;;23.20;22.40
9521;BME280;4798;41.574;23.734;2023-04-07T11:43:24;94988.63;;;24.11;20.83
9521;BME280;4798;41.574;23.734;2023-04-07T11:46:05;94995.50;;;23.82;20.31
9521;BME280;4798;41.574;23.734;2023-04-07T11:48:34;94990.47;;;22.66;17.59
9521;BME280;4798;41.574;23.734;2023-04-07T11:51:03;94990.63;;;23.30;18.30
9521;BME280;4798;41.574;23.734;2023-04-07T11:53:34;94980.63;;;23.12;18.65
9521;BME280;4798;41.574;23.734;2023-04-07T11:56:06;94967.94;;;23.16;17.03
9521;BME280;4798;41.574;23.734;2023-04-07T11:58:36;94970.56;;;24.19;18.28
9521;BME280;4798;41.574;23.734;2023-04-07T12:01:06;94976.56;;;23.41;17.15
9521;BME280;4798;41.574;23.734;2023-04-07T12:03:36;94974.97;;;23.59;18.05
9521;BME280;4798;41.574;23.734;2023-04-07T12:06:05;94972.16;;;21.78;20.14
9521;BME280;4798;41.574;23.734;2023-04-07T12:08:37;94978.09;;;22.14;19.73
9521;BME280;4798;41.574;23.734;2023-04-07T12:11:06;94963.72;;;23.57;18.99
9521;BME280;4798;41.574;23.734;2023-04-07T12:13:35;94956.97;;;24.94;17.42
9521;BME280;4798;41.574;23.734;2023-04-07T12:16:05;94972.44;;;24.15;16.11
9521;BME280;4798;41.574;23.734;2023-04-07T12:18:34;94956.72;;;24.01;17.69
9521;BME280;4798;41.574;23.734;2023-04-07T12:21:03;94956.56;;;23.90;15.75
9521;BME280;4798;41.574;23.734;2023-04-07T12:23:31;94959.25;;;24.36;15.06
9521;BME280;4798;41.574;23.734;2023-04-07T12:25:59;94951.09;;;25.21;17.60
9521;BME280;4798;41.574;23.734;2023-04-07T12:28:28;94959.84;;;23.16;16.02
9521;BME280;4798;41.574;23.734;2023-04-07T12:30:56;94955.13;;;24.75;16.76
9521;BME280;4798;41.574;23.734;2023-04-07T12:33:26;94927.56;;;23.68;16.07
9521;BME280;4798;41.574;23.734;2023-04-07T12:35:54;94960.97;;;22.42;17.29
9521;BME280;4798;41.574;23.734;2023-04-07T12:38:22;94953.94;;;22.91;17.19
9521;BME280;4798;41.574;23.734;2023-04-07T12:40:51;94949.09;;;23.00;17.85
9521;BME280;4798;41.574;23.734;2023-04-07T12:43:19;94961.94;;;21.56;18.09
9521;BME280;4798;41.574;23.734;2023-04-07T12:45:48;94960.72;;;21.53;19.18
9521;BME280;4798;41.574;23.734;2023-04-07T12:48:16;94961.06;;;20.41;18.72
9521;BME280;4798;41.574;23.734;2023-04-07T12:50:46;94953.75;;;20.29;19.99
9521;BME280;4798;41.574;23.734;2023-04-07T12:53:14;94926.41;;;20.15;19.05
9521;BME280;4798;41.574;23.734;2023-04-07T12:55:43;94959.94;;;21.37;19.43
9521;BME280;4798;41.574;23.734;2023-04-07T12:58:12;94929.53;;;20.81;19.40
9521;BME280;4798;41.574;23.734;2023-04-07T13:00:41;94898.63;;;18.93;20.25
9521;BME280;4798;41.574;23.734;2023-04-07T13:03:09;94973.16;;;20.10;20.43
9521;BME280;4798;41.574;23.734;2023-04-07T13:05:37;94933.72;;;20.02;21.66
9521;BME280;4798;41.574;23.734;2023-04-07T13:08:07;94960.13;;;20.88;22.09
9521;BME280;4798;41.574;23.734;2023-04-07T13:10:36;94958.59;;;19.75;20.53
9521;BME280;4798;41.574;23.734;2023-04-07T13:13:04;94958.81;;;19.82;20.39
9521;BME280;4798;41.574;23.734;2023-04-07T13:15:33;94954.22;;;19.95;20.32
9521;BME280;4798;41.574;23.734;2023-04-07T13:18:01;94968.59;;;20.23;20.52
9521;BME280;4798;41.574;23.734;2023-04-07T13:20:29;94961.50;;;21.38;18.92
9521;BME280;4798;41.574;23.734;2023-04-07T13:22:58;94957.94;;;20.78;18.82
9521;BME280;4798;41.574;23.734;2023-04-07T13:25:34;94961.44;;;21.07;19.57
9521;BME280;4798;41.574;23.734;2023-04-07T13:28:03;94927.44;;;20.90;20.68
9521;BME280;4798;41.574;23.734;2023-04-07T13:30:32;94960.75;;;20.70;19.86
9521;BME280;4798;41.574;23.734;2023-04-07T13:33:00;94967.09;;;19.89;19.55
9521;BME280;4798;41.574;23.734;2023-04-07T13:35:29;94963.97;;;20.36;20.27
9521;BME280;4798;41.574;23.734;2023-04-07T13:38:02;94959.38;;;19.88;19.71